< Typhoon 199506 1995 Season Typhoon 199508 >
Typhoon 199507 (JANIS)
General InformationTrack Information on Google MapsDetailed Wind InformationList of All Images || Disaster Info.ResourceGoogle EarthGE AnimationAtom FeedGeoJSON
Detalied Best Track (Time Zone = UTC)
Year Month Day Hour Lat. Long. Pressure (hPa) Wind (kt) Class Image Chart
1995 8 20 18 20.2 131.0 1004 0 2 Image Chart
1995 8 21 00 20.1 130.5 1004 0 2 Image Chart
1995 8 21 06 20.0 130.1 1002 0 2 Image Chart
1995 8 21 12 19.9 129.8 1002 0 2 Image Chart
1995 8 21 18 20.1 130.1 1000 35 3 Image Chart
1995 8 22 00 20.4 130.2 1000 40 3 Image Chart
1995 8 22 06 20.4 129.9 1000 40 3 Image Chart
1995 8 22 12 21.2 129.2 1000 40 3 Image Chart
1995 8 22 18 22.0 128.4 998 40 3 Image Chart
1995 8 23 00 23.3 127.4 998 35 3 Image Chart
1995 8 23 03 24.0 126.5 998 35 3 Image Chart
1995 8 23 06 24.7 125.6 998 35 3 Image Chart
1995 8 23 09 25.2 124.8 998 35 3 Image Chart
1995 8 23 12 25.7 124.5 996 40 3 Image Chart
1995 8 23 15 26.0 124.3 996 40 3 Image Chart
1995 8 23 18 26.3 124.1 996 40 3 Image Chart
1995 8 24 00 26.6 123.6 994 40 3 Image Chart
1995 8 24 06 27.1 122.8 992 45 3 Image Chart
1995 8 24 12 27.7 122.5 990 45 3 Image Chart
1995 8 24 18 28.2 121.7 990 45 3 Image Chart
1995 8 25 00 28.7 121.3 992 40 3 Image Chart
1995 8 25 06 29.8 121.2 996 35 3 Image Chart
1995 8 25 12 30.9 121.3 996 35 3 Image Chart
1995 8 25 18 32.3 121.6 996 35 3 Image Chart
1995 8 26 00 33.9 122.3 994 0 6 Image Chart
1995 8 26 06 35.8 123.8 992 0 6 Image Chart
1995 8 26 12 36.9 126.1 990 0 6 Image Chart
1995 8 26 18 37.7 127.2 992 0 6 Image Chart
1995 8 27 00 38.5 130.5 996 0 6 Image Chart
1995 8 27 06 39.0 133.8 996 0 6 Image Chart
1995 8 27 12 39.5 136.5 996 0 6 Image Chart
1995 8 27 18 40.5 139.0 996 0 6 Image Chart
1995 8 28 00 40.8 142.2 998 0 6 Image Chart
1995 8 28 06 40.0 145.0 1002 0 6 Image Chart
1995 8 28 12 39.5 146.0 1004 0 6 Image Chart
1995 8 28 18 39.0 149.5 1004 0 6 Image Chart
Japan Meteorological Agency Best Track Data | Correction Date : 1996-01-19
< Typhoon 199506 1995 Season Typhoon 199508 >

Help